Weimar, Texas
Current Conditions -  °F | °C
As of 11:15 PM on Saturday 25 Oct 2014 (Local Time) from K66R Reporting Station
Clear Clear  
Wind Chill: 65°   Ceiling: Unl
Heat Index: 65°   Visibility: 10mi
Dew Point: 60°   Wind: 0mph
Humidity: 84%   Direction: NA
Pressure: 30.1"   Gusts: NA
Location:  29.7°N, 96.78°W
Report Text: K66R 260415Z AUTO 00000KT 10SM CLR 18/16 A3010 RMK AO2 T01820155
Loading
Personal Weather Stations






























Interactive Weather Map
Tropical Storm Tracking
New forecast layout! Learn more

10-Day Weather Forecast

Advertisements
Track Severe Weather on mobile